Time;durP1;ratioP1;P1;durP2;ratioP2;P2;SDS_P1;SDS_P2;PMS_P1;PMS_P2;Temp;Humidity;BMP_temperature;BMP_pressure;BME280_temperature;BME280_humidity;BME280_pressure;Samples;Min_cycle;Max_cycle;Signal;HPM_P1;HPM_P2
2022/10/31 00:01:52;;;;;;;12.40;9.48;;;;;;;18.23;58.08;101942.00;5068569;28;20045;-67
2022/10/31 00:04:22;;;;;;;16.73;9.07;;;;;;;18.20;57.95;101952.28;5072202;28;20405;-68
2022/10/31 00:06:49;;;;;;;13.63;9.60;;;;;;;18.14;57.87;101945.53;5072128;28;20106;-67
2022/10/31 00:09:15;;;;;;;13.32;9.23;;;;;;;18.09;57.74;101951.34;5071819;28;20102;-67
2022/10/31 00:11:42;;;;;;;16.90;9.90;;;;;;;18.04;58.12;101944.56;5056057;28;20048;-68
2022/10/31 00:14:13;;;;;;;14.50;9.45;;;;;;;17.99;58.25;101944.09;5052036;28;20052;-67
2022/10/31 00:16:41;;;;;;;15.63;9.43;;;;;;;17.95;58.25;101948.06;5051907;28;20045;-67
2022/10/31 00:19:08;;;;;;;17.80;10.10;;;;;;;17.87;58.09;101958.75;5052463;28;20091;-67
2022/10/31 00:21:35;;;;;;;15.75;10.00;;;;;;;17.78;58.55;101953.06;5051931;28;20037;-68
2022/10/31 00:24:02;;;;;;;13.93;9.32;;;;;;;17.75;58.70;101958.75;5052001;28;20041;-67
2022/10/31 00:26:31;;;;;;;13.25;9.85;;;;;;;17.74;58.24;101953.44;5051435;28;20087;-67
2022/10/31 00:28:59;;;;;;;12.80;9.75;;;;;;;17.72;58.44;101959.00;5055099;28;20037;-67
2022/10/31 00:31:26;;;;;;;16.27;10.20;;;;;;;17.72;58.49;101958.13;5071928;28;20040;-67
2022/10/31 00:33:53;;;;;;;15.80;10.13;;;;;;;17.71;58.81;101948.25;5071575;28;20043;-66
2022/10/31 00:36:21;;;;;;;15.45;9.23;;;;;;;17.72;58.32;101955.41;5072081;28;20052;-67
2022/10/31 00:38:48;;;;;;;18.48;10.18;;;;;;;17.73;58.77;101954.44;5052392;28;20036;-67
2022/10/31 00:41:16;;;;;;;13.20;8.77;;;;;;;17.72;58.45;101953.56;5053631;28;20048;-67
2022/10/31 00:43:43;;;;;;;14.07;10.13;;;;;;;17.71;58.51;101954.56;5053358;28;20052;-67
2022/10/31 00:46:10;;;;;;;21.80;11.00;;;;;;;17.70;58.17;101943.81;5070105;28;20056;-67
2022/10/31 00:48:37;;;;;;;19.63;10.90;;;;;;;17.68;58.35;101943.09;5033633;28;20040;-67
2022/10/31 00:51:04;;;;;;;19.50;11.48;;;;;;;17.66;58.49;101947.75;5050740;28;20142;-66
2022/10/31 00:53:31;;;;;;;12.98;10.38;;;;;;;17.63;58.57;101940.72;5053523;28;20045;-67
2022/10/31 00:56:03;;;;;;;13.23;9.35;;;;;;;17.58;58.46;101934.81;5070666;28;20064;-66
2022/10/31 00:58:29;;;;;;;16.08;9.93;;;;;;;17.57;58.22;101935.81;5070406;28;20431;-67
2022/10/31 01:00:56;;;;;;;16.40;9.90;;;;;;;17.57;58.23;101932.22;5053818;28;20098;-68
2022/10/31 01:03:25;;;;;;;14.35;9.55;;;;;;;17.56;58.14;101934.06;5054929;28;20098;-68
2022/10/31 01:06:04;;;;;;;12.65;9.57;;;;;;;17.52;58.30;101938.03;5073336;28;20043;-68
2022/10/31 01:08:32;;;;;;;14.35;8.73;;;;;;;17.51;58.24;101940.88;5070664;28;20049;-68
2022/10/31 01:11:17;;;;;;;11.00;8.52;;;;;;;17.47;58.31;101937.56;5053648;28;20072;-68
2022/10/31 01:13:44;;;;;;;12.57;9.00;;;;;;;17.45;58.31;101940.41;5072866;28;20033;-67
2022/10/31 01:16:17;;;;;;;13.57;10.30;;;;;;;17.44;58.05;101945.97;5075615;28;20294;-67
2022/10/31 01:18:44;;;;;;;12.18;9.55;;;;;;;17.43;58.18;101939.66;5057424;28;20090;-68
2022/10/31 01:21:24;;;;;;;16.98;10.63;;;;;;;17.41;58.27;101940.78;5057780;28;20045;-68
2022/10/31 01:23:53;;;;;;;17.58;11.10;;;;;;;17.41;58.28;101940.78;5075586;28;20401;-68
2022/10/31 01:26:24;;;;;;;16.70;11.55;;;;;;;17.37;58.37;101959.19;5075955;28;20103;-67
2022/10/31 01:28:59;;;;;;;19.27;12.23;;;;;;;17.37;58.16;101952.88;5057183;28;20132;-67
2022/10/31 01:31:30;;;;;;;20.50;11.48;;;;;;;17.33;58.29;101937.84;5057554;28;20040;-67
2022/10/31 01:33:57;;;;;;;22.60;11.70;;;;;;;17.32;58.38;101919.81;5057775;28;20379;-67
2022/10/31 01:36:39;;;;;;;13.98;10.73;;;;;;;17.25;58.39;101910.44;5058704;28;20053;-67
2022/10/31 01:39:11;;;;;;;15.00;10.70;;;;;;;17.23;58.27;101910.56;5057375;28;20048;-67
2022/10/31 01:41:42;;;;;;;16.77;10.18;;;;;;;17.23;58.82;101916.00;5075184;28;20056;-67
2022/10/31 01:44:15;;;;;;;13.43;10.02;;;;;;;17.21;58.30;101917.97;5075755;28;20090;-67
2022/10/31 01:46:50;;;;;;;16.77;11.50;;;;;;;17.15;58.40;101915.78;5074468;28;20094;-67
2022/10/31 01:49:21;;;;;;;16.08;10.30;;;;;;;17.10;58.29;101929.72;5056158;28;20041;-67
2022/10/31 01:51:55;;;;;;;13.05;9.70;;;;;;;17.06;58.29;101927.34;5074536;28;20103;-67
2022/10/31 01:54:27;;;;;;;11.73;9.50;;;;;;;17.01;58.33;101926.84;5056918;28;20441;-68
2022/10/31 01:56:57;;;;;;;13.88;9.52;;;;;;;16.98;58.37;101932.53;5057183;28;20548;-67
2022/10/31 01:59:29;;;;;;;11.10;8.57;;;;;;;16.92;58.00;101931.19;5061635;28;20045;-67
2022/10/31 02:01:56;;;;;;;12.80;8.35;;;;;;;16.86;58.34;101931.69;5054424;28;20048;-67
2022/10/31 02:04:25;;;;;;;13.80;8.50;;;;;;;16.82;58.26;101944.63;5054976;28;20099;-67
2022/10/31 02:07:10;;;;;;;12.73;8.50;;;;;;;16.80;58.13;101938.47;5055763;28;20060;-67
2022/10/31 02:09:37;;;;;;;13.77;8.95;;;;;;;16.78;58.23;101937.72;5069682;28;20513;-67
2022/10/31 02:12:05;;;;;;;11.95;9.05;;;;;;;16.77;57.94;101929.69;5057556;28;20057;-68
2022/10/31 02:14:33;;;;;;;11.88;8.35;;;;;;;16.76;58.28;101944.25;5058327;28;20044;-67
2022/10/31 02:16:59;;;;;;;13.10;8.93;;;;;;;16.75;58.23;101942.53;5058456;28;20045;-67
2022/10/31 02:19:26;;;;;;;16.42;10.00;;;;;;;16.71;58.21;101944.63;5044363;28;20426;-67
2022/10/31 02:22:05;;;;;;;13.70;9.73;;;;;;;16.70;58.22;101939.31;5056615;28;20037;-67
2022/10/31 02:24:36;;;;;;;15.43;9.98;;;;;;;16.72;58.44;101937.34;5039199;28;20041;-67
2022/10/31 02:27:07;;;;;;;15.05;9.50;;;;;;;16.71;58.53;101922.91;5035676;28;20045;-66
2022/10/31 02:30:03;;;;;;;11.00;8.30;;;;;;;16.71;58.19;101927.47;5067517;28;20086;-66
2022/10/31 02:32:44;;;;;;;13.73;10.07;;;;;;;16.69;58.55;101932.16;5073431;28;20070;-67
2022/10/31 02:35:27;;;;;;;13.23;8.63;;;;;;;16.65;58.32;101928.84;5055977;28;20106;-66
2022/10/31 02:38:13;;;;;;;12.48;8.93;;;;;;;16.62;58.53;101929.03;5055941;28;20042;-67
2022/10/31 02:40:53;;;;;;;17.00;11.63;;;;;;;16.58;58.42;101922.13;5042434;28;20068;-67
2022/10/31 02:43:54;;;;;;;17.23;10.93;;;;;;;16.56;58.25;101925.94;5055658;28;20067;-67
2022/10/31 02:46:44;;;;;;;14.10;10.02;;;;;;;16.49;58.27;101918.31;5055867;28;20040;-68
2022/10/31 02:49:32;;;;;;;15.57;10.95;;;;;;;16.46;58.18;101923.09;5032036;28;20033;-67
2022/10/31 02:51:58;;;;;;;16.20;10.05;;;;;;;16.42;58.27;101932.47;5035663;28;20716;-67
2022/10/31 02:54:28;;;;;;;14.20;9.88;;;;;;;16.36;58.48;101927.53;5054703;28;20087;-67
2022/10/31 02:57:06;;;;;;;15.50;10.05;;;;;;;16.32;58.59;101934.13;5036126;28;20136;-67
2022/10/31 02:59:35;;;;;;;13.48;9.98;;;;;;;16.28;58.37;101925.38;5054780;28;20052;-68
2022/10/31 03:02:10;;;;;;;16.60;9.88;;;;;;;16.28;58.27;101933.50;5054458;28;20045;-67
2022/10/31 03:04:51;;;;;;;14.85;9.52;;;;;;;16.27;58.19;101925.50;5036880;28;20041;-67
2022/10/31 03:07:43;;;;;;;18.33;10.48;;;;;;;16.28;58.29;101922.66;5054732;28;20415;-67
2022/10/31 03:10:31;;;;;;;13.25;9.93;;;;;;;16.25;58.53;101917.50;5052791;28;20052;-67
2022/10/31 03:13:29;;;;;;;15.35;10.05;;;;;;;16.21;58.43;101916.88;5056745;28;20462;-67
2022/10/31 03:16:38;;;;;;;16.52;10.25;;;;;;;16.21;58.57;101921.41;5057507;28;20052;-67
2022/10/31 03:19:17;;;;;;;16.02;10.75;;;;;;;16.23;58.64;101924.00;5033388;28;20041;-67
2022/10/31 03:21:45;;;;;;;14.32;10.77;;;;;;;16.22;58.84;101925.84;5037664;28;20487;-67
2022/10/31 03:24:15;;;;;;;15.27;10.25;;;;;;;16.21;58.57;101927.69;5059163;28;20384;-67
2022/10/31 03:26:47;;;;;;;13.80;10.18;;;;;;;16.21;58.53;101921.41;5019826;28;20395;-67
2022/10/31 03:29:18;;;;;;;12.93;10.00;;;;;;;16.21;58.59;101925.00;5052859;28;20057;-67
2022/10/31 03:31:56;;;;;;;11.88;10.10;;;;;;;16.20;58.59;101925.97;5053255;28;20064;-67
2022/10/31 03:34:29;;;;;;;18.08;11.02;;;;;;;16.21;58.97;101921.41;5018863;28;20041;-67
2022/10/31 03:37:01;;;;;;;17.25;10.60;;;;;;;16.20;58.90;101928.69;5034867;28;20045;-67
2022/10/31 03:39:29;;;;;;;9.63;7.53;;;;;;;16.17;58.68;101923.50;5050410;28;20124;-67
2022/10/31 03:42:11;;;;;;;7.28;5.78;;;;;;;16.11;58.99;101915.84;5068985;28;20090;-67
2022/10/31 03:44:46;;;;;;;9.13;5.53;;;;;;;16.07;58.96;101922.50;5055020;28;20095;-67
2022/10/31 03:47:13;;;;;;;10.13;7.10;;;;;;;16.04;59.04;101919.16;5053556;28;20109;-67
2022/10/31 03:49:39;;;;;;;11.57;8.48;;;;;;;16.01;58.79;101917.53;5054433;28;20043;-67
2022/10/31 03:52:34;;;;;;;14.02;9.05;;;;;;;16.00;58.97;101923.94;5054496;28;20411;-68
2022/10/31 03:55:19;;;;;;;13.32;8.52;;;;;;;15.99;59.23;101922.22;5054655;28;20040;-68
2022/10/31 03:58:07;;;;;;;15.02;9.15;;;;;;;16.01;59.23;101924.81;5049684;28;20072;-68
2022/10/31 04:00:36;;;;;;;11.38;8.80;;;;;;;16.02;58.73;101923.81;5052565;28;20041;-67
2022/10/31 04:03:12;;;;;;;14.48;10.73;;;;;;;16.00;58.80;101931.22;5034472;28;20056;-67
2022/10/31 04:05:51;;;;;;;15.07;10.40;;;;;;;15.99;58.95;101922.22;5034668;28;20049;-67
2022/10/31 04:08:22;;;;;;;11.00;8.23;;;;;;;15.95;59.09;101925.28;5034995;28;20049;-68
2022/10/31 04:10:51;;;;;;;10.10;7.88;;;;;;;15.87;59.12;101924.03;5034542;28;20132;-67
2022/10/31 04:13:24;;;;;;;11.00;9.00;;;;;;;15.79;59.04;101922.88;5052909;28;20150;-67
2022/10/31 04:16:03;;;;;;;13.15;9.32;;;;;;;15.72;58.64;101922.47;5035066;28;20037;-67
2022/10/31 04:18:31;;;;;;;13.93;10.07;;;;;;;15.69;58.90;101927.25;5034267;28;20065;-67
2022/10/31 04:21:06;;;;;;;13.32;9.20;;;;;;;15.67;59.09;101921.97;5034266;28;20542;-67
2022/10/31 04:23:35;;;;;;;14.52;9.88;;;;;;;15.68;59.29;101920.97;5051857;28;20045;-67
2022/10/31 04:26:13;;;;;;;14.00;9.88;;;;;;;15.67;59.25;101927.38;5034047;28;20098;-68
2022/10/31 04:28:42;;;;;;;13.20;10.55;;;;;;;15.68;59.14;101920.13;5051877;28;20033;-67
2022/10/31 04:31:12;;;;;;;13.95;10.48;;;;;;;15.67;59.05;101924.66;5033235;28;20148;-67
2022/10/31 04:33:39;;;;;;;13.80;10.25;;;;;;;15.69;58.76;101922.72;5034261;28;20401;-68
2022/10/31 04:36:07;;;;;;;14.02;10.68;;;;;;;15.70;58.90;101918.16;5053283;28;20044;-68
2022/10/31 04:38:33;;;;;;;13.90;10.45;;;;;;;15.69;58.86;101922.72;5071464;28;20078;-68
2022/10/31 04:41:03;;;;;;;15.38;9.98;;;;;;;15.68;59.34;101915.56;5052986;28;20037;-68
2022/10/31 04:43:48;;;;;;;16.30;10.27;;;;;;;15.68;59.39;101902.03;5071272;28;20131;-67
2022/10/31 04:46:15;;;;;;;16.38;11.00;;;;;;;15.69;59.18;101913.72;5053302;28;20241;-67
2022/10/31 04:48:42;;;;;;;14.98;10.10;;;;;;;15.69;59.00;101911.88;5052401;28;20037;-68
2022/10/31 04:51:10;;;;;;;16.02;11.32;;;;;;;15.70;59.16;101912.75;5052713;28;20041;-67
2022/10/31 04:53:37;;;;;;;18.27;11.38;;;;;;;15.72;59.24;101913.50;5071091;28;20105;-68
2022/10/31 04:56:30;;;;;;;15.32;10.70;;;;;;;15.76;59.25;101909.56;5048950;28;20133;-67
2022/10/31 04:59:05;;;;;;;13.45;9.57;;;;;;;15.78;59.59;101911.19;5069620;28;20048;-68
2022/10/31 05:01:44;;;;;;;31.45;11.23;;;;;;;15.79;59.65;101902.06;5052338;28;20155;-68
2022/10/31 05:04:13;;;;;;;12.57;10.63;;;;;;;15.81;59.51;101896.53;5053084;28;20118;-68
2022/10/31 05:06:40;;;;;;;16.92;10.80;;;;;;;15.82;59.63;101899.13;5052959;28;20395;-68
2022/10/31 05:09:07;;;;;;;14.60;10.55;;;;;;;15.85;59.84;101906.16;5052877;28;20045;-68
2022/10/31 05:11:34;;;;;;;14.18;10.63;;;;;;;15.86;59.59;101900.63;5039192;28;20143;-68
2022/10/31 05:14:20;;;;;;;14.45;10.40;;;;;;;15.88;59.87;101900.50;5049932;28;20091;-68
2022/10/31 05:17:22;;;;;;;16.60;9.03;;;;;;;15.87;59.55;101896.94;5050838;28;20064;-67
2022/10/31 05:20:07;;;;;;;52.13;10.18;;;;;;;15.83;59.49;101900.00;5056091;28;20877;-67
2022/10/31 05:22:54;;;;;;;9.63;7.72;;;;;;;15.74;59.42;101896.13;5053118;28;20040;-68
2022/10/31 05:25:27;;;;;;;10.13;8.13;;;;;;;15.66;58.94;101895.00;5052962;28;20136;-68
2022/10/31 05:27:55;;;;;;;10.43;7.60;;;;;;;15.62;59.06;101893.50;5052869;28;20392;-68
2022/10/31 05:30:24;;;;;;;10.05;7.97;;;;;;;15.59;59.12;101899.97;5053885;28;20037;-68
2022/10/31 05:32:51;;;;;;;10.35;7.70;;;;;;;15.54;59.28;101897.59;5033057;28;20239;-68
2022/10/31 05:35:41;;;;;;;11.13;8.18;;;;;;;15.52;59.11;101906.81;5022471;28;20045;-68
2022/10/31 05:38:37;;;;;;;;;;;;;;;15.46;58.97;101893.72;5024807;28;20045;-68
2022/10/31 05:41:18;;;;;;;11.73;8.93;;;;;;;15.46;59.17;101894.59;5044425;28;20017;-68
2022/10/31 05:43:46;;;;;;;16.85;9.88;;;;;;;15.44;58.84;101893.84;5070685;28;20412;-68
2022/10/31 05:46:40;;;;;;;15.63;10.32;;;;;;;15.40;59.03;101891.47;5052910;28;20064;-68
2022/10/31 05:49:26;;;;;;;14.63;9.50;;;;;;;15.38;59.12;101888.88;5070075;28;20418;-68
2022/10/31 05:52:24;;;;;;;12.40;8.45;;;;;;;15.37;59.16;101891.72;5025620;28;20048;-68
2022/10/31 05:55:03;;;;;;;10.05;8.52;;;;;;;15.36;59.46;101884.56;5053797;28;20050;-68
2022/10/31 05:57:32;;;;;;;12.65;9.60;;;;;;;15.37;59.43;101878.19;5055090;28;20047;-68
2022/10/31 05:59:58;;;;;;;14.02;9.73;;;;;;;15.38;59.37;101882.63;5024188;28;20405;-68
2022/10/31 06:02:26;;;;;;;16.13;10.07;;;;;;;15.39;59.38;101882.50;5035313;28;20045;-68
2022/10/31 06:05:17;;;;;;;12.52;9.25;;;;;;;15.41;59.34;101883.25;5036444;28;20058;-68
2022/10/31 06:07:45;;;;;;;20.73;12.05;;;;;;;15.43;59.51;101875.88;5034199;28;20073;-68
2022/10/31 06:10:11;;;;;;;12.35;10.55;;;;;;;15.44;59.63;101866.78;5044279;28;20466;-67
2022/10/31 06:12:40;;;;;;;15.38;9.73;;;;;;;15.45;59.44;101873.06;5033017;28;20049;-68
2022/10/31 06:15:19;;;;;;;14.13;9.48;;;;;;;15.46;59.50;101877.47;5033064;28;20080;-69
2022/10/31 06:18:03;;;;;;;15.57;9.07;;;;;;;15.46;59.22;101875.63;5032610;28;20132;-68
2022/10/31 06:20:34;;;;;;;12.30;8.43;;;;;;;15.43;59.38;101884.00;5050312;28;20423;-68
2022/10/31 06:23:03;;;;;;;10.07;7.90;;;;;;;15.39;59.32;101889.75;5051206;28;20162;-68
2022/10/31 06:25:32;;;;;;;9.45;7.65;;;;;;;15.34;59.58;101887.38;5051285;28;20053;-68
2022/10/31 06:27:59;;;;;;;8.27;7.32;;;;;;;15.29;59.18;101886.88;5051073;28;20099;-68
2022/10/31 06:30:35;;;;;;;10.27;6.32;;;;;;;15.23;59.56;101873.78;5048012;28;20069;-69
2022/10/31 06:33:04;;;;;;;8.57;6.80;;;;;;;15.14;59.33;101874.47;5048381;28;20103;-68
2022/10/31 06:35:33;;;;;;;22.27;9.60;;;;;;;15.06;59.60;101877.75;5050302;28;20041;-69
2022/10/31 06:38:00;;;;;;;13.82;8.95;;;;;;;14.98;59.03;101880.16;5034933;28;20060;-68
2022/10/31 06:40:34;;;;;;;12.57;9.27;;;;;;;14.91;59.59;101873.47;5054381;28;20439;-68
2022/10/31 06:43:30;;;;;;;12.57;9.35;;;;;;;14.85;59.40;101877.44;5046834;28;20411;-69
2022/10/31 06:46:21;;;;;;;12.43;9.35;;;;;;;14.83;59.53;101879.41;5053227;28;20037;-69
2022/10/31 06:49:04;;;;;;;12.38;9.05;;;;;;;14.81;59.68;101875.94;5052515;28;20033;-68
2022/10/31 06:51:37;;;;;;;13.45;9.73;;;;;;;14.78;59.92;101881.56;5052222;28;20048;-68
2022/10/31 06:54:09;;;;;;;13.30;9.90;;;;;;;14.76;59.74;101883.53;5052488;28;20056;-69
2022/10/31 06:56:36;;;;;;;12.50;10.10;;;;;;;14.78;59.85;101891.53;5052073;28;20045;-68
2022/10/31 06:59:03;;;;;;;16.02;11.10;;;;;;;14.77;59.99;101887.09;5051526;28;20121;-68
2022/10/31 07:01:50;;;;;;;13.15;10.20;;;;;;;14.78;59.95;101899.63;5052147;28;20380;-68
2022/10/31 07:04:22;;;;;;;14.57;10.68;;;;;;;14.80;59.86;101903.09;5052312;28;20056;-68
2022/10/31 07:06:51;;;;;;;12.10;10.10;;;;;;;14.81;60.34;101900.28;5052413;28;20410;-67
2022/10/31 07:09:18;;;;;;;12.43;10.10;;;;;;;14.82;60.03;101890.31;5043351;28;20048;-68
2022/10/31 07:11:46;;;;;;;16.13;9.98;;;;;;;14.81;60.41;101897.56;5051682;28;20045;-69
2022/10/31 07:14:13;;;;;;;13.65;9.93;;;;;;;14.82;60.19;101893.03;5051690;28;20049;-69
2022/10/31 07:16:41;;;;;;;13.93;9.77;;;;;;;14.80;60.42;101898.56;5053702;28;20080;-69
2022/10/31 07:19:08;;;;;;;12.15;8.82;;;;;;;14.79;60.14;101891.41;5051444;28;20128;-68
2022/10/31 07:21:35;;;;;;;11.18;8.60;;;;;;;14.77;60.09;101892.50;5041661;28;20036;-68
2022/10/31 07:24:01;;;;;;;12.07;9.30;;;;;;;14.76;60.30;101891.63;5053690;28;20033;-67
2022/10/31 07:26:56;;;;;;;16.35;11.63;;;;;;;14.77;60.52;101887.09;5034927;28;20131;-68
2022/10/31 07:29:28;;;;;;;17.63;10.98;;;;;;;14.80;60.58;101889.56;5054222;28;20041;-68
2022/10/31 07:31:54;;;;;;;17.88;10.65;;;;;;;14.83;60.44;101892.91;5041357;28;20562;-68
2022/10/31 07:34:29;;;;;;;15.35;11.10;;;;;;;14.85;60.61;101903.63;5034905;28;20045;-68
2022/10/31 07:37:18;;;;;;;16.58;11.85;;;;;;;14.91;60.52;101900.50;5033956;28;20041;-67
2022/10/31 07:39:45;;;;;;;18.42;11.73;;;;;;;14.94;60.77;101893.03;5031529;28;20041;-68
2022/10/31 07:42:11;;;;;;;18.67;12.38;;;;;;;14.99;61.31;101897.25;5033096;28;20049;-67
2022/10/31 07:44:46;;;;;;;16.75;11.77;;;;;;;15.07;60.78;101898.41;5032459;28;20141;-67
2022/10/31 07:47:58;;;;;;;17.33;11.88;;;;;;;15.15;61.17;101895.16;5032375;28;20651;-67
2022/10/31 07:50:57;;;;;;;20.15;13.27;;;;;;;15.25;60.91;101899.75;5040287;28;20052;-66
2022/10/31 07:53:42;;;;;;;20.70;14.38;;;;;;;15.34;61.22;101905.47;5052365;28;20091;-66
2022/10/31 07:56:24;;;;;;;27.48;17.42;;;;;;;15.44;61.02;101909.22;5050550;28;20049;-66
2022/10/31 07:58:51;;;;;;;25.95;16.60;;;;;;;15.50;61.31;101914.19;5053355;28;20502;-67
2022/10/31 08:01:17;;;;;;;26.83;16.73;;;;;;;15.60;61.67;101907.13;5052366;28;20036;-65
2022/10/31 08:03:57;;;;;;;22.70;15.02;;;;;;;15.69;61.95;101909.16;5068531;28;20048;-67
2022/10/31 08:06:44;;;;;;;20.40;13.93;;;;;;;15.76;61.54;101906.84;5070343;28;20102;-67
2022/10/31 08:09:23;;;;;;;22.48;12.75;;;;;;;15.81;61.59;101904.66;5051966;28;20827;-66
2022/10/31 08:11:52;;;;;;;20.92;13.95;;;;;;;15.88;61.53;101905.91;5051688;28;20048;-66
2022/10/31 08:14:22;;;;;;;25.05;18.25;;;;;;;15.96;61.52;101910.75;5069678;28;20054;-66
2022/10/31 08:16:52;;;;;;;27.08;16.00;;;;;;;16.04;62.01;101914.59;5069358;28;20028;-65
2022/10/31 08:19:19;;;;;;;27.35;18.60;;;;;;;16.14;62.02;101914.75;5039300;28;20400;-67
2022/10/31 08:21:46;;;;;;;27.58;19.13;;;;;;;16.25;61.87;101909.34;5056686;28;20067;-67
2022/10/31 08:24:17;;;;;;;28.90;19.80;;;;;;;16.36;62.46;101905.84;5053625;28;20151;-67
2022/10/31 08:26:44;;;;;;;29.00;21.15;;;;;;;16.46;62.05;101907.69;5053953;28;20532;-67
2022/10/31 08:29:11;;;;;;;30.67;20.80;;;;;;;16.56;62.37;101909.69;5053610;28;20128;-67
2022/10/31 08:31:39;;;;;;;31.35;20.02;;;;;;;16.67;62.68;101905.16;5053328;28;20566;-67
2022/10/31 08:34:32;;;;;;;44.45;24.20;;;;;;;16.83;62.68;101899.38;5071492;28;20155;-67
2022/10/31 08:37:28;;;;;;;28.20;20.88;;;;;;;17.00;62.79;101900.72;4999425;28;20054;-67
2022/10/31 08:39:55;;;;;;;27.88;19.20;;;;;;;17.12;62.63;101897.88;5069767;28;20430;-67
2022/10/31 08:42:22;;;;;;;26.25;18.67;;;;;;;17.30;62.77;101886.50;5053341;28;20052;-67
2022/10/31 08:44:52;;;;;;;27.63;19.10;;;;;;;17.45;62.65;101882.50;5051749;28;20040;-68
2022/10/31 08:47:21;;;;;;;27.88;18.77;;;;;;;17.60;62.70;101869.47;5051200;28;20494;-67
2022/10/31 08:49:47;;;;;;;24.27;18.77;;;;;;;17.72;62.85;101877.50;5051621;28;20037;-68
2022/10/31 08:52:14;;;;;;;26.33;17.58;;;;;;;17.87;62.65;101878.06;5051088;28;20168;-68
2022/10/31 08:54:44;;;;;;;27.98;19.17;;;;;;;18.02;62.68;101878.59;5051814;28;20036;-68
2022/10/31 08:57:29;;;;;;;23.80;18.25;;;;;;;18.15;62.82;101884.72;5069503;28;20552;-67
2022/10/31 08:59:57;;;;;;;30.35;19.05;;;;;;;18.30;62.79;101888.81;5031650;28;20037;-68
2022/10/31 09:02:30;;;;;;;30.13;18.70;;;;;;;18.42;62.46;101887.75;5047718;28;20049;-68
2022/10/31 09:04:59;;;;;;;24.98;18.83;;;;;;;18.55;62.41;101889.38;5047987;28;20067;-66
2022/10/31 09:07:26;;;;;;;26.30;18.60;;;;;;;18.63;62.21;101878.75;5041746;28;20046;-66
2022/10/31 09:09:53;;;;;;;30.58;19.08;;;;;;;18.71;61.96;101854.44;5049774;28;20481;-66
2022/10/31 09:12:20;;;;;;;28.58;19.13;;;;;;;18.75;61.76;101831.38;5065212;28;20055;-67
2022/10/31 09:15:13;;;;;;;30.13;20.20;;;;;;;18.80;61.54;101823.66;5028335;28;20519;-66
2022/10/31 09:17:48;;;;;;;27.38;19.70;;;;;;;18.83;61.57;101817.09;5030317;28;20065;-66
2022/10/31 09:20:38;;;;;;;30.27;19.95;;;;;;;18.86;61.65;101823.13;5030287;28;20128;-66
2022/10/31 09:23:10;;;;;;;33.22;20.38;;;;;;;18.88;61.36;101818.41;5036355;28;20095;-66
2022/10/31 09:25:39;;;;;;;28.05;19.90;;;;;;;18.89;61.75;101828.28;5050299;28;20049;-66
2022/10/31 09:28:26;;;;;;;27.38;19.60;;;;;;;18.90;61.51;101824.56;5051893;28;20114;-66
2022/10/31 09:30:57;;;;;;;29.20;20.63;;;;;;;18.90;61.63;101821.84;5066558;28;20037;-66
2022/10/31 09:33:42;;;;;;;26.83;18.95;;;;;;;18.93;61.41;101845.19;5051571;28;20047;-66
2022/10/31 09:36:27;;;;;;;34.80;19.83;;;;;;;18.97;61.44;101850.22;5043243;28;20137;-66
2022/10/31 09:38:54;;;;;;;25.13;19.15;;;;;;;19.04;61.75;101842.34;5049883;28;20045;-66
2022/10/31 09:41:50;;;;;;;30.67;20.48;;;;;;;19.10;61.49;101840.94;5046126;28;20041;-66
2022/10/31 09:45:00;;;;;;;28.88;19.92;;;;;;;19.17;61.48;101834.78;5035313;28;20037;-66
2022/10/31 09:47:47;;;;;;;31.15;19.90;;;;;;;19.26;61.71;101828.50;5035087;28;20403;-65
2022/10/31 09:50:55;;;;;;;;;;;;;;;19.33;61.60;101824.22;5034779;28;20045;-65
2022/10/31 09:54:12;;;;;;;30.70;19.30;;;;;;;19.47;61.73;101819.38;5024236;28;19967;-66
2022/10/31 09:56:39;;;;;;;30.27;20.77;;;;;;;19.54;61.24;101804.19;5039292;28;20044;-66
2022/10/31 09:59:16;;;;;;;30.83;20.00;;;;;;;19.57;61.19;101798.47;5053615;28;20733;-66
2022/10/31 10:01:56;;;;;;;30.92;20.33;;;;;;;19.61;61.50;101800.75;5053664;28;20114;-66
2022/10/31 10:04:57;;;;;;;32.25;20.45;;;;;;;19.64;61.41;101808.63;5053228;28;20041;-68
2022/10/31 10:07:32;;;;;;;38.15;20.58;;;;;;;19.68;61.27;101801.03;5040195;28;20046;-68
2022/10/31 10:10:51;;;;;;;37.33;20.42;;;;;;;19.71;61.46;101802.59;5034797;28;20046;-68
2022/10/31 10:13:30;;;;;;;36.80;21.45;;;;;;;19.76;61.10;101793.00;5053347;28;20406;-68
2022/10/31 10:16:21;;;;;;;33.35;20.20;;;;;;;19.78;61.18;101787.38;5053404;28;20333;-68
2022/10/31 10:19:19;;;;;;;34.65;21.05;;;;;;;19.81;61.29;101789.81;5033195;28;20041;-68
2022/10/31 10:21:58;;;;;;;33.22;20.80;;;;;;;19.87;61.18;101789.25;5033317;28;20373;-68
2022/10/31 10:24:44;;;;;;;31.13;20.85;;;;;;;19.92;61.27;101790.50;5050580;28;20045;-67
2022/10/31 10:27:40;;;;;;;30.65;20.52;;;;;;;20.03;61.14;101785.91;5047339;28;20487;-68
2022/10/31 10:30:09;;;;;;;30.00;21.20;;;;;;;20.16;61.17;101778.28;5051989;28;20384;-68
2022/10/31 10:32:50;;;;;;;32.30;20.45;;;;;;;20.28;61.09;101774.38;5052846;28;20053;-68
2022/10/31 10:35:55;;;;;;;25.98;19.48;;;;;;;20.40;60.99;101764.16;5052826;28;20053;-68
2022/10/31 10:39:14;;;;;;;33.78;19.85;;;;;;;20.56;60.69;101761.63;4990803;28;20089;-67
2022/10/31 10:41:46;;;;;;;30.55;18.98;;;;;;;20.72;60.63;101756.38;5011013;28;20057;-67
2022/10/31 10:44:17;;;;;;;29.70;19.20;;;;;;;20.86;60.58;101753.16;5037537;28;20045;-68
2022/10/31 10:49:39;;;;;;;26.20;17.40;;;;;;;21.09;60.20;101733.56;5052382;28;20414;-67
2022/10/31 10:52:34;;;;;;;27.05;19.25;;;;;;;21.16;60.03;101729.22;5052787;28;20128;-67
2022/10/31 10:55:27;;;;;;;29.85;19.05;;;;;;;21.20;59.48;101728.72;5053034;28;20040;-68
2022/10/31 10:58:03;;;;;;;28.95;19.10;;;;;;;21.20;59.44;101722.41;5043687;28;20226;-68
2022/10/31 11:00:32;;;;;;;27.00;18.48;;;;;;;21.20;59.41;101715.06;5049878;28;20040;-68
2022/10/31 11:02:58;;;;;;;28.75;19.13;;;;;;;21.21;59.30;101702.28;5043309;28;20037;-68
2022/10/31 11:05:52;;;;;;;32.70;20.23;;;;;;;21.21;59.27;101711.31;5051837;28;20094;-68
2022/10/31 11:08:25;;;;;;;33.00;19.60;;;;;;;21.27;59.05;101719.94;5043424;28;20041;-66
2022/10/31 11:11:03;;;;;;;31.05;19.45;;;;;;;21.28;59.22;101713.47;5044762;28;20097;-66
2022/10/31 11:13:32;;;;;;;27.38;18.50;;;;;;;21.32;58.99;101707.53;5032347;28;20053;-65
2022/10/31 11:16:28;;;;;;;28.73;18.42;;;;;;;21.34;58.88;101713.69;5032622;28;20041;-66
2022/10/31 11:19:26;;;;;;;32.80;18.90;;;;;;;21.36;58.51;101706.19;5033538;28;20053;-65
2022/10/31 11:21:53;;;;;;;28.85;18.58;;;;;;;21.39;58.52;101705.00;5032364;28;20096;-66
2022/10/31 11:24:23;;;;;;;30.60;18.67;;;;;;;21.40;58.45;101710.31;5032490;28;20496;-66
2022/10/31 11:26:51;;;;;;;28.55;18.30;;;;;;;21.43;58.31;101700.94;5032685;28;20049;-66
2022/10/31 11:29:25;;;;;;;31.48;19.30;;;;;;;21.45;58.35;101705.25;5033284;28;20083;-66
2022/10/31 11:31:54;;;;;;;29.38;18.58;;;;;;;21.48;58.07;101698.59;5032100;28;20558;-65
2022/10/31 11:34:28;;;;;;;32.15;18.02;;;;;;;21.52;58.16;101692.66;5032401;28;20514;-65
2022/10/31 11:37:01;;;;;;;25.95;17.63;;;;;;;21.55;58.22;101695.09;5033004;28;20041;-66
2022/10/31 11:39:28;;;;;;;28.70;17.25;;;;;;;21.60;58.06;101682.81;5032063;28;20500;-66
2022/10/31 11:41:59;;;;;;;29.30;17.98;;;;;;;21.63;57.82;101674.31;5032087;28;20053;-66
2022/10/31 11:44:40;;;;;;;28.10;18.42;;;;;;;21.65;57.67;101667.66;5031111;28;20431;-66
2022/10/31 11:47:15;;;;;;;28.25;17.58;;;;;;;21.69;57.64;101660.00;5042483;28;20049;-66
2022/10/31 11:49:44;;;;;;;30.58;19.27;;;;;;;21.75;58.01;101645.66;5046381;28;20096;-66
2022/10/31 11:52:18;;;;;;;31.45;17.70;;;;;;;21.79;57.71;101639.72;5038699;28;20049;-67
2022/10/31 11:55:00;;;;;;;27.45;16.60;;;;;;;21.86;57.53;101639.91;5037235;28;20426;-68